createdAt,value
2018-10-05T00:01:44.726Z,1.00
2018-10-05T00:06:48.217Z,2.00
2018-10-05T00:11:51.725Z,2.00
2018-10-05T00:16:55.205Z,0.20
2018-10-05T00:21:58.678Z,1.00
2018-10-05T00:27:02.137Z,1.25
2018-10-05T00:32:05.672Z,1.00
2018-10-05T00:37:09.152Z,2.00
2018-10-05T00:42:12.637Z,1.20
2018-10-05T00:47:16.158Z,1.60
2018-10-05T00:52:19.613Z,2.50
2018-10-05T00:57:23.087Z,0.60
2018-10-05T01:02:26.577Z,1.00
2018-10-05T01:07:30.092Z,0.20
2018-10-05T01:12:33.570Z,1.00
2018-10-05T01:17:37.090Z,1.00
2018-10-05T01:22:40.632Z,1.00
2018-10-05T01:27:44.114Z,0.20
2018-10-05T01:32:47.573Z,2.00
2018-10-05T01:37:51.084Z,0.60
2018-10-05T01:42:54.544Z,0.25
2018-10-05T01:47:57.979Z,2.00
2018-10-05T01:53:01.456Z,0.75
2018-10-05T01:58:04.946Z,1.00
2018-10-05T02:03:08.460Z,1.25
2018-10-05T02:08:11.919Z,0.80
2018-10-05T02:13:15.381Z,1.00
2018-10-05T02:18:18.912Z,1.00
2018-10-05T02:23:22.353Z,1.00
2018-10-05T02:28:25.828Z,1.40
2018-10-05T02:33:29.295Z,1.00
2018-10-05T02:38:33.159Z,1.00
2018-10-05T02:43:36.642Z,1.00
2018-10-05T02:48:40.126Z,1.00
2018-10-05T02:53:43.589Z,1.75
2018-10-05T02:58:47.028Z,1.60
2018-10-05T03:03:50.473Z,0.00
2018-10-05T03:08:53.945Z,1.40
2018-10-05T03:13:57.409Z,0.00
2018-10-05T03:19:00.865Z,0.20
2018-10-05T03:24:04.346Z,1.00
2018-10-05T03:29:07.836Z,0.20
2018-10-05T03:34:11.296Z,1.50
2018-10-05T03:39:14.782Z,0.80
2018-10-05T03:44:18.243Z,1.00
2018-10-05T03:49:21.779Z,1.00
2018-10-05T03:54:26.154Z,1.25
2018-10-05T03:59:29.631Z,2.50
2018-10-05T04:04:33.116Z,1.00
2018-10-05T04:09:36.751Z,2.50
2018-10-05T04:14:40.205Z,2.75
2018-10-05T04:19:43.694Z,1.00
2018-10-05T04:24:47.130Z,1.00
2018-10-05T04:29:50.650Z,1.00
2018-10-05T04:34:54.086Z,2.20
2018-10-05T04:39:57.526Z,2.50
2018-10-05T04:45:01.007Z,2.00
2018-10-05T04:50:04.659Z,1.00
2018-10-05T04:55:08.102Z,1.60
2018-10-05T05:00:11.562Z,2.00
2018-10-05T05:05:14.978Z,1.50
2018-10-05T05:10:18.417Z,1.00
2018-10-05T05:15:21.832Z,1.20
2018-10-05T05:20:25.277Z,1.50
2018-10-05T05:25:28.732Z,1.20
2018-10-05T05:30:32.152Z,1.00
2018-10-05T05:35:35.611Z,0.60
2018-10-05T05:40:39.043Z,1.00
2018-10-05T05:45:42.488Z,2.00
2018-10-05T05:50:45.903Z,1.60
2018-10-05T05:55:49.347Z,1.25
2018-10-05T06:00:52.771Z,1.60
2018-10-05T06:05:56.214Z,1.00
2018-10-05T06:10:59.652Z,3.80
2018-10-05T06:16:03.110Z,1.00
2018-10-05T06:21:06.736Z,1.80
2018-10-05T06:26:10.188Z,1.00
2018-10-05T06:31:13.741Z,2.00
2018-10-05T06:36:17.120Z,0.75
2018-10-05T06:41:20.539Z,2.20
2018-10-05T06:46:24.855Z,1.50
2018-10-05T06:51:28.327Z,1.00
2018-10-05T06:56:31.774Z,3.20
2018-10-05T07:01:36.264Z,3.00
2018-10-05T07:06:39.901Z,1.20
2018-10-05T07:11:43.360Z,2.00
2018-10-05T07:16:46.816Z,1.40
2018-10-05T07:21:50.237Z,1.25
2018-10-05T07:26:53.660Z,12.50
2018-10-05T07:31:57.132Z,13.75
2018-10-05T07:37:00.615Z,11.00
2018-10-05T07:42:04.049Z,11.60
2018-10-05T07:47:07.526Z,11.40
2018-10-05T07:52:10.965Z,12.75
2018-10-05T07:57:14.449Z,9.75
2018-10-05T08:02:18.087Z,9.40
2018-10-05T08:07:21.520Z,9.25
2018-10-05T08:12:25.876Z,9.00
2018-10-05T08:17:29.341Z,8.00
2018-10-05T08:22:32.785Z,7.20
2018-10-05T08:27:36.274Z,7.00
2018-10-05T08:32:39.718Z,8.60
2018-10-05T08:37:43.149Z,8.20
2018-10-05T08:42:46.594Z,8.25
2018-10-05T08:47:50.037Z,7.40
2018-10-05T08:52:53.475Z,8.50
2018-10-05T08:57:56.908Z,7.00
2018-10-05T09:03:00.338Z,8.00
2018-10-05T09:08:03.769Z,6.25
2018-10-05T09:13:07.198Z,7.20
2018-10-05T09:18:10.708Z,7.50
2018-10-05T09:23:14.081Z,6.80
2018-10-05T09:28:17.550Z,7.00
2018-10-05T09:33:20.975Z,8.60
2018-10-05T09:38:24.447Z,8.50
2018-10-05T09:43:27.873Z,6.60
2018-10-05T09:48:31.305Z,6.50
2018-10-05T09:53:34.740Z,7.50
2018-10-05T09:58:38.184Z,7.00
2018-10-05T10:03:41.675Z,7.50
2018-10-05T10:08:45.155Z,7.00
2018-10-05T10:13:48.611Z,7.00
2018-10-05T10:18:52.154Z,7.00
2018-10-05T10:23:55.676Z,7.50
2018-10-05T10:28:59.224Z,7.60
2018-10-05T10:34:02.686Z,7.20
2018-10-05T10:39:07.754Z,6.60
2018-10-05T10:44:11.182Z,7.75
2018-10-05T10:49:14.714Z,6.75
2018-10-05T10:54:18.414Z,6.80
2018-10-05T10:59:22.044Z,7.20
2018-10-05T11:04:25.543Z,8.00
2018-10-05T11:09:28.955Z,8.00
2018-10-05T11:14:32.445Z,6.50
2018-10-05T11:19:35.886Z,7.80
2018-10-05T11:24:39.320Z,7.00
2018-10-05T11:29:42.828Z,6.50
2018-10-05T11:50:58.576Z,6.20
2018-10-05T11:56:02.049Z,4.75
2018-10-05T12:01:05.709Z,5.40
2018-10-05T12:06:09.219Z,6.00
2018-10-05T12:11:12.760Z,8.00
2018-10-05T12:16:16.408Z,5.50
2018-10-05T12:21:19.857Z,7.20
2018-10-05T12:26:23.294Z,7.00
2018-10-05T12:31:38.647Z,7.00
2018-10-05T12:36:42.157Z,6.40
2018-10-05T12:41:45.669Z,5.80
2018-10-05T12:46:49.147Z,6.75
2018-10-05T12:51:52.689Z,6.40
2018-10-05T12:56:56.215Z,6.75
2018-10-05T13:01:59.657Z,5.75
2018-10-05T13:07:03.157Z,6.20
2018-10-05T13:12:06.763Z,8.00
2018-10-05T13:17:10.176Z,5.75
2018-10-05T13:22:13.608Z,7.00
2018-10-05T13:27:17.041Z,6.60
2018-10-05T13:32:20.514Z,5.25
2018-10-05T13:37:24.142Z,6.40
2018-10-05T13:42:27.615Z,6.25
2018-10-05T13:47:31.237Z,6.40
2018-10-05T13:52:34.682Z,5.50
2018-10-05T13:57:38.151Z,6.20
2018-10-05T14:02:41.582Z,5.25
2018-10-05T14:07:45.015Z,7.00
2018-10-05T14:12:48.454Z,5.50
2018-10-05T14:17:51.892Z,6.20
2018-10-05T14:22:55.367Z,4.75
2018-10-05T14:27:58.874Z,5.60
2018-10-05T14:33:02.299Z,5.25
2018-10-05T14:38:05.796Z,5.80
2018-10-05T14:43:09.209Z,5.75
2018-10-05T14:48:12.615Z,6.80
2018-10-05T14:53:16.077Z,5.25
2018-10-05T14:58:19.509Z,4.50
2018-10-05T15:03:22.967Z,5.80
2018-10-05T15:08:26.381Z,6.00
2018-10-05T15:13:29.816Z,5.80
2018-10-05T15:18:33.245Z,5.00
2018-10-05T15:23:36.845Z,5.60
2018-10-05T15:28:40.271Z,5.25
2018-10-05T15:33:44.406Z,7.20
2018-10-05T15:38:47.879Z,5.00
2018-10-05T15:43:51.348Z,5.25
2018-10-05T15:48:54.787Z,5.60
2018-10-05T15:53:58.255Z,5.00
2018-10-05T15:59:01.955Z,5.60
2018-10-05T16:04:05.568Z,6.80
2018-10-05T16:09:09.612Z,5.60
2018-10-05T16:14:13.225Z,5.00
2018-10-05T16:19:16.687Z,7.00
2018-10-05T16:24:28.678Z,6.40
2018-10-05T16:29:32.144Z,4.00
2018-10-05T16:34:35.761Z,6.75
2018-10-05T16:39:39.270Z,6.00
2018-10-05T16:44:42.826Z,6.20
2018-10-05T16:49:46.290Z,5.00
2018-10-05T16:54:50.055Z,5.00
2018-10-05T16:59:53.670Z,4.50
2018-10-05T17:04:57.087Z,5.40
2018-10-05T17:10:00.547Z,6.25
2018-10-05T17:15:04.621Z,5.80
2018-10-05T17:20:08.438Z,5.20
2018-10-05T17:25:12.137Z,5.00
2018-10-05T17:30:15.577Z,6.00
2018-10-05T17:35:19.024Z,5.20
2018-10-05T17:40:22.529Z,7.00
2018-10-05T17:45:26.065Z,6.00
2018-10-05T17:50:29.539Z,5.00
2018-10-05T17:55:33.052Z,8.00
2018-10-05T18:00:36.441Z,5.75
2018-10-05T18:05:39.903Z,6.80
2018-10-05T18:10:43.562Z,8.50
2018-10-05T18:15:47.026Z,5.50
2018-10-05T18:20:50.455Z,6.75
2018-10-05T18:25:54.118Z,7.50
2018-10-05T18:30:57.551Z,5.75
2018-10-05T18:36:01.117Z,5.80
2018-10-05T18:41:05.097Z,6.00
2018-10-05T18:46:08.972Z,7.50
2018-10-05T18:51:12.689Z,7.75
2018-10-05T18:56:27.269Z,6.80
2018-10-05T19:01:31.292Z,6.80
2018-10-05T19:06:36.378Z,8.20
2018-10-05T19:11:40.425Z,8.60
2018-10-05T19:16:43.905Z,10.25
2018-10-05T19:21:47.354Z,10.25
2018-10-05T19:26:50.924Z,8.25
2018-10-05T19:31:54.651Z,6.75
2018-10-05T19:36:58.108Z,9.20
2018-10-05T19:42:01.617Z,9.80
2018-10-05T19:47:05.040Z,8.20
2018-10-05T19:52:08.638Z,6.00
2018-10-05T19:57:12.093Z,7.00
2018-10-05T20:02:15.536Z,8.50
2018-10-05T20:07:19.014Z,6.75
2018-10-05T20:12:22.494Z,5.50
2018-10-05T20:17:25.974Z,8.00
2018-10-05T20:22:29.425Z,8.50
2018-10-05T20:27:32.870Z,7.00
2018-10-05T20:32:36.411Z,8.25
2018-10-05T20:37:39.982Z,7.00
2018-10-05T20:42:43.318Z,7.50
2018-10-05T20:47:46.760Z,5.80
2018-10-05T20:52:50.188Z,6.25
2018-10-05T20:57:54.000Z,6.25
2018-10-05T21:02:57.479Z,6.00
2018-10-05T21:08:00.863Z,8.00
2018-10-05T21:13:04.349Z,5.60
2018-10-05T21:18:07.825Z,7.60
2018-10-05T21:23:11.281Z,7.00
2018-10-05T21:28:14.766Z,7.40
2018-10-05T21:33:18.335Z,7.00
2018-10-05T21:38:21.798Z,6.60
2018-10-05T21:43:25.275Z,8.40
2018-10-05T21:48:28.845Z,7.25
2018-10-05T21:53:32.379Z,6.00
2018-10-05T21:58:35.953Z,5.40
2018-10-05T22:03:39.465Z,6.00
2018-10-05T22:08:42.994Z,6.00
2018-10-05T22:13:46.496Z,6.00
2018-10-05T22:18:50.041Z,5.60
2018-10-05T22:23:53.545Z,5.00
2018-10-05T22:28:57.016Z,6.40
2018-10-05T22:34:00.482Z,5.75
2018-10-05T22:39:05.337Z,5.00
2018-10-05T22:44:08.768Z,5.40
2018-10-05T22:49:12.217Z,4.00
2018-10-05T22:54:15.823Z,5.25
2018-10-05T22:59:19.335Z,5.25
2018-10-05T23:04:22.801Z,5.75
2018-10-05T23:09:26.237Z,5.00
2018-10-05T23:14:29.682Z,5.00
2018-10-05T23:19:33.096Z,6.60
2018-10-05T23:24:36.562Z,5.00
2018-10-05T23:29:40.010Z,5.00
2018-10-05T23:34:43.436Z,6.00
2018-10-05T23:39:46.880Z,5.40
2018-10-05T23:44:50.312Z,5.25
2018-10-05T23:49:53.781Z,5.25
2018-10-05T23:54:57.203Z,6.00
